createdAt,value
2022-10-17T00:01:03.534Z,26.55
2022-10-17T00:03:31.260Z,37.72
2022-10-17T00:05:59.007Z,26.25
2022-10-17T00:08:26.440Z,25.17
2022-10-17T00:11:03.292Z,34.05
2022-10-17T00:13:31.064Z,22.80
2022-10-17T00:15:58.986Z,25.63
2022-10-17T00:18:27.033Z,29.75
2022-10-17T00:20:54.492Z,24.00
2022-10-17T00:23:22.243Z,28.13
2022-10-17T00:26:03.846Z,29.95
2022-10-17T00:28:33.353Z,24.02
2022-10-17T00:31:03.939Z,31.55
2022-10-17T00:33:32.214Z,27.23
2022-10-17T00:36:15.800Z,24.80
2022-10-17T00:38:45.348Z,28.05
2022-10-17T00:41:16.326Z,30.38
2022-10-17T00:44:08.215Z,28.95
2022-10-17T00:46:37.920Z,26.75
2022-10-17T00:49:09.835Z,28.02
2022-10-17T00:51:42.412Z,28.88
2022-10-17T00:54:13.903Z,26.48
2022-10-17T00:56:41.950Z,29.77
2022-10-17T00:59:12.435Z,30.08
2022-10-17T01:01:42.000Z,33.22
2022-10-17T01:04:10.976Z,29.02
2022-10-17T01:06:40.235Z,25.55
2022-10-17T01:09:07.809Z,29.98
2022-10-17T01:11:41.683Z,27.60
2022-10-17T01:14:30.307Z,30.80
2022-10-17T01:17:11.911Z,28.52
2022-10-17T01:20:20.192Z,28.17
2022-10-17T01:22:59.193Z,28.55
2022-10-17T01:25:38.251Z,31.13
2022-10-17T01:28:24.261Z,30.67
2022-10-17T01:31:15.992Z,27.75
2022-10-17T01:34:00.361Z,27.48
2022-10-17T01:36:39.984Z,30.17
2022-10-17T01:39:26.958Z,26.95
2022-10-17T01:42:03.606Z,31.58
2022-10-17T01:44:54.157Z,28.42
2022-10-17T01:47:26.926Z,26.90
2022-10-17T01:50:01.649Z,30.90
2022-10-17T01:52:38.800Z,30.30
2022-10-17T01:55:23.681Z,27.52
2022-10-17T02:00:27.670Z,30.55
2022-10-17T02:03:00.251Z,26.50
2022-10-17T02:05:39.117Z,27.55
2022-10-17T02:08:07.219Z,26.88
2022-10-17T02:11:02.365Z,31.23
2022-10-17T02:13:51.436Z,28.10
2022-10-17T02:16:37.344Z,32.40
2022-10-17T02:19:20.045Z,33.58
2022-10-17T02:22:04.289Z,28.83
2022-10-17T02:24:53.080Z,28.42
2022-10-17T02:27:47.907Z,33.25
2022-10-17T02:30:36.723Z,27.52
2022-10-17T02:33:14.452Z,30.17
2022-10-17T02:35:47.503Z,27.05
2022-10-17T02:38:16.497Z,31.27
2022-10-17T02:40:46.029Z,29.25
2022-10-17T02:43:14.932Z,30.00
2022-10-17T02:45:42.445Z,27.58
2022-10-17T02:48:22.510Z,29.85
2022-10-17T02:51:12.418Z,32.03
2022-10-17T02:53:59.041Z,29.67
2022-10-17T02:56:31.053Z,28.27
2022-10-17T02:59:01.271Z,31.13
2022-10-17T03:01:30.977Z,30.45
2022-10-17T03:04:10.122Z,31.52
2022-10-17T03:06:38.669Z,31.30
2022-10-17T03:09:07.152Z,31.10
2022-10-17T03:11:37.232Z,33.90
2022-10-17T03:14:04.907Z,33.22
2022-10-17T03:16:32.754Z,31.77
2022-10-17T03:19:00.505Z,31.25
2022-10-17T03:21:28.150Z,30.27
2022-10-17T03:23:56.594Z,32.35
2022-10-17T03:26:24.861Z,33.38
2022-10-17T03:28:54.490Z,28.52
2022-10-17T03:31:23.479Z,27.52
2022-10-17T03:33:52.650Z,27.88
2022-10-17T03:36:20.459Z,30.27
2022-10-17T03:38:48.505Z,28.83
2022-10-17T03:41:17.964Z,30.23
2022-10-17T03:43:45.463Z,33.83
2022-10-17T03:46:13.233Z,33.45
2022-10-17T03:48:40.852Z,40.30
2022-10-17T03:51:09.653Z,39.15
2022-10-17T03:53:47.975Z,33.20
2022-10-17T03:56:21.861Z,32.92
2022-10-17T03:58:58.147Z,36.40
2022-10-17T04:01:25.770Z,35.40
2022-10-17T04:03:55.112Z,38.47
2022-10-17T04:06:23.388Z,35.65
2022-10-17T04:08:51.187Z,38.83
2022-10-17T04:11:25.744Z,33.45
2022-10-17T04:13:59.316Z,33.92
2022-10-17T04:16:28.505Z,39.67
2022-10-17T04:19:03.204Z,36.30
2022-10-17T04:21:40.512Z,38.78
2022-10-17T04:24:11.213Z,39.10
2022-10-17T04:26:58.922Z,38.67
2022-10-17T04:29:40.899Z,47.90
2022-10-17T04:32:17.184Z,45.70
2022-10-17T04:34:50.189Z,41.13
2022-10-17T04:37:19.062Z,41.28
2022-10-17T04:39:48.078Z,40.10
2022-10-17T04:42:15.594Z,43.35
2022-10-17T04:44:43.175Z,37.58
2022-10-17T04:47:11.071Z,37.25
2022-10-17T04:52:13.108Z,37.85
2022-10-17T04:54:43.715Z,44.05
2022-10-17T04:57:13.971Z,42.25
2022-10-17T04:59:44.485Z,49.03
2022-10-17T05:02:30.775Z,47.65
2022-10-17T05:04:59.474Z,43.30
2022-10-17T05:07:27.028Z,46.28
2022-10-17T05:10:03.731Z,51.13
2022-10-17T05:12:32.883Z,49.97
2022-10-17T05:15:02.022Z,44.95
2022-10-17T05:17:31.573Z,45.97
2022-10-17T05:19:59.140Z,48.60
2022-10-17T05:22:26.992Z,47.25
2022-10-17T05:24:56.071Z,46.80
2022-10-17T05:27:24.343Z,39.85
2022-10-17T05:29:53.791Z,42.83
2022-10-17T05:32:27.839Z,43.30
2022-10-17T05:34:56.134Z,48.90
2022-10-17T05:37:25.932Z,53.97
2022-10-17T05:39:59.451Z,45.03
2022-10-17T05:42:27.845Z,41.00
2022-10-17T05:44:56.828Z,40.78
2022-10-17T05:47:24.501Z,43.90
2022-10-17T05:49:54.412Z,40.10
2022-10-17T05:52:28.301Z,41.53
2022-10-17T05:55:08.794Z,39.72
2022-10-17T05:57:36.375Z,38.50
2022-10-17T06:00:07.786Z,36.28
2022-10-17T06:02:50.818Z,39.17
2022-10-17T06:05:20.756Z,34.97
2022-10-17T06:07:50.203Z,38.88
2022-10-17T06:10:18.973Z,41.33
2022-10-17T06:12:46.780Z,35.38
2022-10-17T06:15:15.648Z,37.25
2022-10-17T06:17:47.565Z,37.03
2022-10-17T06:20:15.244Z,40.30
2022-10-17T06:22:45.496Z,39.40
2022-10-17T06:25:18.865Z,35.17
2022-10-17T06:27:46.571Z,30.27
2022-10-17T06:30:14.244Z,36.92
2022-10-17T06:32:42.003Z,30.65
2022-10-17T06:35:09.615Z,30.85
2022-10-17T06:37:37.859Z,31.70
2022-10-17T06:40:10.544Z,28.27
2022-10-17T06:42:39.559Z,26.70
2022-10-17T06:45:27.431Z,29.38
2022-10-17T06:48:09.577Z,29.67
2022-10-17T06:51:12.766Z,39.15
2022-10-17T06:53:48.668Z,27.13
2022-10-17T06:56:36.754Z,29.75
2022-10-17T06:59:30.031Z,30.75
2022-10-17T07:02:24.278Z,27.33
2022-10-17T07:04:53.399Z,22.83
2022-10-17T07:07:20.996Z,20.33
2022-10-17T07:09:51.525Z,24.20
2022-10-17T08:52:42.815Z,19.27
2022-10-17T09:16:32.586Z,20.25
2022-10-17T09:19:25.189Z,15.00
2022-10-17T09:22:01.747Z,15.43
2022-10-17T09:24:39.322Z,12.77
2022-10-17T09:27:34.103Z,13.82
2022-10-17T09:30:40.139Z,15.52
2022-10-17T09:33:23.351Z,14.18
2022-10-17T09:36:04.365Z,15.40
2022-10-17T09:38:39.817Z,12.88
2022-10-17T09:41:43.063Z,17.45
2022-10-17T09:44:18.524Z,15.23
2022-10-17T09:47:11.480Z,13.60
2022-10-17T09:49:42.239Z,18.30
2022-10-17T09:52:39.619Z,13.68
2022-10-17T09:55:21.087Z,15.55
2022-10-17T09:58:03.813Z,18.65
2022-10-17T10:00:38.059Z,16.20
2022-10-17T10:03:09.518Z,17.88
2022-10-17T10:05:37.169Z,21.40
2022-10-17T10:08:12.733Z,12.40
2022-10-17T10:10:43.742Z,12.77
2022-10-17T10:13:13.922Z,14.50
2022-10-17T10:15:41.452Z,16.35
2022-10-17T10:18:27.188Z,17.15
2022-10-17T10:21:14.758Z,12.65
2022-10-17T10:23:44.579Z,14.07
2022-10-17T10:26:25.821Z,14.13
2022-10-17T10:28:55.990Z,16.58
2022-10-17T10:31:29.375Z,15.50
2022-10-17T10:33:58.727Z,13.43
2022-10-17T10:36:26.415Z,13.10
2022-10-17T10:39:01.297Z,15.95
2022-10-17T10:41:47.499Z,15.93
2022-10-17T10:46:43.661Z,15.25
2022-10-17T10:49:29.831Z,20.45
2022-10-17T10:52:00.555Z,18.33
2022-10-17T10:54:34.269Z,14.60
2022-10-17T10:57:07.309Z,11.52
2022-10-17T10:59:46.580Z,17.55
2022-10-17T11:02:46.104Z,12.23
2022-10-17T11:05:29.012Z,15.13
2022-10-17T11:08:06.045Z,13.75
2022-10-17T11:10:44.510Z,15.43
2022-10-17T11:13:19.088Z,11.80
2022-10-17T11:16:04.769Z,13.80
2022-10-17T11:18:47.524Z,17.15
2022-10-17T11:21:29.279Z,12.82
2022-10-17T11:24:06.872Z,15.55
2022-10-17T11:26:45.184Z,12.48
2022-10-17T11:29:13.799Z,14.00
2022-10-17T11:31:48.601Z,14.05
2022-10-17T11:34:27.438Z,13.43
2022-10-17T11:37:01.265Z,13.55
2022-10-17T11:42:19.936Z,16.13
2022-10-17T11:44:52.438Z,17.42
2022-10-17T11:48:02.956Z,12.00
2022-10-17T11:53:31.191Z,13.68
2022-10-17T11:56:00.930Z,13.32
2022-10-17T11:58:48.271Z,12.15
2022-10-17T12:01:19.277Z,14.85
2022-10-17T12:03:59.569Z,16.45
2022-10-17T12:06:39.205Z,14.95
2022-10-17T12:09:37.184Z,13.15
2022-10-17T12:12:04.883Z,13.88
2022-10-17T12:14:47.484Z,15.77
2022-10-17T12:17:23.327Z,11.33
2022-10-17T12:19:51.395Z,14.20
2022-10-17T12:22:23.151Z,13.82
2022-10-17T12:25:02.651Z,15.65
2022-10-17T12:27:43.723Z,16.67
2022-10-17T12:30:19.693Z,12.10
2022-10-17T12:33:05.682Z,17.42
2022-10-17T12:35:35.833Z,12.85
2022-10-17T12:38:20.319Z,15.20
2022-10-17T12:40:52.965Z,12.38
2022-10-17T12:43:29.501Z,10.50
2022-10-17T12:45:58.565Z,16.58
2022-10-17T12:48:38.414Z,11.50
2022-10-17T12:51:34.658Z,13.05
2022-10-17T12:54:12.763Z,11.20
2022-10-17T12:56:49.458Z,11.02
2022-10-17T12:59:28.514Z,11.23
2022-10-17T13:02:00.763Z,12.77
2022-10-17T13:04:30.629Z,13.73
2022-10-17T13:07:00.693Z,16.08
2022-10-17T13:09:31.508Z,10.68
2022-10-17T13:12:03.164Z,13.45
2022-10-17T13:14:33.291Z,13.20
2022-10-17T13:17:00.771Z,14.07
2022-10-17T13:19:42.922Z,13.18
2022-10-17T13:22:16.569Z,17.42
2022-10-17T13:24:44.296Z,14.10
2022-10-17T13:27:32.655Z,11.50
2022-10-17T13:30:02.567Z,13.45
2022-10-17T13:32:40.775Z,14.55
2022-10-17T13:35:12.266Z,14.90
2022-10-17T13:37:47.346Z,11.93
2022-10-17T13:40:44.603Z,12.48
2022-10-17T13:45:49.683Z,12.35
2022-10-17T13:48:29.958Z,11.93
2022-10-17T13:51:04.484Z,12.18
2022-10-17T13:53:35.257Z,13.73
2022-10-17T13:56:30.115Z,15.23
2022-10-17T13:59:01.463Z,11.90
2022-10-17T14:01:29.658Z,12.00
2022-10-17T14:04:08.342Z,13.32
2022-10-17T14:06:47.686Z,14.25
2022-10-17T14:09:25.431Z,18.65
2022-10-17T14:12:16.584Z,16.00
2022-10-17T14:15:13.007Z,14.27
2022-10-17T14:17:38.558Z,16.27
2022-10-17T14:20:57.175Z,16.85
2022-10-17T14:23:21.413Z,12.55
2022-10-17T14:25:44.551Z,17.30
2022-10-17T14:28:12.598Z,13.25
2022-10-17T14:30:57.164Z,17.45
2022-10-17T14:33:31.362Z,18.98
2022-10-17T14:36:01.598Z,10.48
2022-10-17T14:38:30.168Z,16.25
2022-10-17T14:44:07.048Z,16.05
2022-10-17T14:46:36.649Z,14.55
2022-10-17T14:49:25.092Z,18.35
2022-10-17T14:52:17.732Z,15.48
2022-10-17T14:54:49.747Z,19.27
2022-10-17T14:57:22.037Z,21.85
2022-10-17T14:59:55.202Z,12.68
2022-10-17T15:02:24.983Z,15.65
2022-10-17T15:04:52.976Z,26.58
2022-10-17T15:07:24.120Z,31.85
2022-10-17T15:09:53.990Z,17.05
2022-10-17T15:12:24.784Z,16.33
2022-10-17T15:14:55.741Z,17.45
2022-10-17T15:17:30.540Z,17.35
2022-10-17T15:19:59.033Z,20.08
2022-10-17T15:22:26.852Z,19.77
2022-10-17T15:24:54.399Z,17.15
2022-10-17T15:27:24.103Z,14.20
2022-10-17T15:29:53.079Z,15.80
2022-10-17T15:32:20.731Z,14.93
2022-10-17T15:34:48.238Z,16.15
2022-10-17T15:37:25.633Z,17.35
2022-10-17T15:39:54.908Z,20.23
2022-10-17T15:42:26.803Z,17.30
2022-10-17T15:44:57.961Z,22.05
2022-10-17T15:47:34.105Z,17.17
2022-10-17T15:50:03.167Z,16.80
2022-10-17T15:52:30.840Z,20.45
2022-10-17T15:55:00.955Z,16.80
2022-10-17T15:57:37.983Z,15.07
2022-10-17T16:00:16.358Z,16.23
2022-10-17T16:02:44.996Z,16.33
2022-10-17T16:05:18.703Z,22.48
2022-10-17T16:07:46.851Z,22.08
2022-10-17T16:10:16.167Z,21.05
2022-10-17T16:12:43.797Z,21.65
2022-10-17T16:15:16.910Z,15.25
2022-10-17T16:17:44.963Z,35.47
2022-10-17T16:20:14.101Z,17.15
2022-10-17T16:22:44.143Z,16.85
2022-10-17T16:25:39.342Z,17.67
2022-10-17T16:28:08.497Z,24.17
2022-10-17T16:30:43.020Z,18.85
2022-10-17T16:33:11.212Z,19.90
2022-10-17T16:35:38.881Z,18.83
2022-10-17T16:38:08.000Z,18.15
2022-10-17T16:40:38.688Z,23.75
2022-10-17T16:43:06.595Z,15.18
2022-10-17T16:45:34.164Z,16.77
2022-10-17T16:48:01.652Z,19.52
2022-10-17T16:50:31.210Z,21.67
2022-10-17T16:52:59.083Z,18.73
2022-10-17T16:55:26.743Z,19.10
2022-10-17T16:57:54.163Z,27.15
2022-10-17T17:00:21.684Z,19.48
2022-10-17T17:02:49.364Z,23.05
2022-10-17T17:05:16.918Z,22.60
2022-10-17T17:07:45.450Z,19.33
2022-10-17T17:10:13.065Z,15.85
2022-10-17T17:12:40.553Z,21.17
2022-10-17T17:15:08.303Z,22.25
2022-10-17T17:17:54.957Z,20.42
2022-10-17T17:20:23.483Z,23.00
2022-10-17T17:22:52.320Z,22.10
2022-10-17T17:25:20.002Z,23.20
2022-10-17T17:27:47.548Z,21.80
2022-10-17T17:30:15.825Z,21.00
2022-10-17T17:32:43.424Z,20.50
2022-10-17T17:35:10.968Z,19.88
2022-10-17T17:37:38.524Z,22.13
2022-10-17T17:40:12.394Z,21.00
2022-10-17T17:42:39.921Z,21.95
2022-10-17T17:45:08.021Z,19.30
2022-10-17T17:47:35.590Z,22.88
2022-10-17T17:50:03.658Z,21.40
2022-10-17T17:52:31.591Z,24.73
2022-10-17T17:54:59.461Z,25.02
2022-10-17T17:57:29.481Z,24.88
2022-10-17T17:59:57.097Z,24.98
2022-10-17T18:02:24.628Z,24.80
2022-10-17T18:04:52.134Z,27.00
2022-10-17T18:07:19.669Z,21.85
2022-10-17T18:09:49.166Z,21.42
2022-10-17T18:12:16.845Z,23.27
2022-10-17T18:14:44.310Z,22.13
2022-10-17T18:17:11.860Z,21.35
2022-10-17T18:19:39.622Z,24.20
2022-10-17T18:22:07.424Z,24.17
2022-10-17T18:24:36.291Z,23.67
2022-10-17T18:27:04.193Z,27.10
2022-10-17T18:29:32.776Z,21.13
2022-10-17T18:32:00.409Z,19.98
2022-10-17T18:34:27.948Z,18.70
2022-10-17T18:36:55.568Z,20.23
2022-10-17T18:39:23.273Z,22.10
2022-10-17T18:41:50.914Z,23.10
2022-10-17T18:44:18.531Z,20.27
2022-10-17T18:46:46.992Z,20.63
2022-10-17T18:49:18.973Z,26.52
2022-10-17T18:51:46.884Z,25.98
2022-10-17T18:54:20.454Z,21.80
2022-10-17T18:56:51.029Z,28.77
2022-10-17T18:59:19.693Z,22.23
2022-10-17T19:01:48.017Z,22.55
2022-10-17T19:04:15.867Z,20.95
2022-10-17T19:06:44.545Z,22.92
2022-10-17T19:09:13.666Z,22.75
2022-10-17T19:11:42.174Z,21.70
2022-10-17T19:14:15.032Z,19.77
2022-10-17T19:16:46.597Z,19.98
2022-10-17T19:19:16.205Z,27.35
2022-10-17T19:21:44.370Z,23.15
2022-10-17T19:24:17.833Z,22.85
2022-10-17T19:26:46.830Z,24.17
2022-10-17T19:29:15.984Z,23.80
2022-10-17T19:31:44.558Z,21.25
2022-10-17T19:34:13.213Z,21.65
2022-10-17T19:36:41.214Z,22.98
2022-10-17T19:39:15.876Z,28.30
2022-10-17T19:41:45.183Z,27.35
2022-10-17T19:44:13.192Z,22.88
2022-10-17T19:46:40.974Z,22.42
2022-10-17T19:49:08.484Z,21.90
2022-10-17T19:51:36.054Z,21.13
2022-10-17T19:54:04.025Z,27.08
2022-10-17T19:56:33.865Z,26.00
2022-10-17T19:59:01.541Z,23.20
2022-10-17T20:01:33.224Z,21.80
2022-10-17T20:04:00.955Z,22.58
2022-10-17T20:06:28.490Z,28.13
2022-10-17T20:08:56.632Z,23.95
2022-10-17T20:11:26.991Z,23.80
2022-10-17T20:13:55.808Z,21.25
2022-10-17T20:16:25.644Z,25.90
2022-10-17T20:18:55.644Z,22.45
2022-10-17T20:21:28.670Z,28.00
2022-10-17T20:23:56.305Z,24.85
2022-10-17T20:26:36.600Z,24.40
2022-10-17T20:29:10.914Z,22.77
2022-10-17T20:31:40.475Z,25.02
2022-10-17T20:34:11.374Z,22.90
2022-10-17T20:36:40.332Z,25.35
2022-10-17T20:39:09.788Z,24.83
2022-10-17T20:41:37.274Z,26.92
2022-10-17T20:44:06.809Z,27.17
2022-10-17T20:46:37.279Z,26.95
2022-10-17T20:49:08.819Z,26.80
2022-10-17T20:51:36.439Z,24.23
2022-10-17T20:54:05.000Z,26.38
2022-10-17T20:56:34.114Z,25.60
2022-10-17T20:59:04.683Z,25.25
2022-10-17T21:01:34.942Z,30.65
2022-10-17T21:04:26.931Z,28.75
2022-10-17T21:06:54.263Z,26.95
2022-10-17T21:09:22.354Z,28.33
2022-10-17T21:11:55.668Z,29.88
2022-10-17T21:14:33.740Z,26.27
2022-10-17T21:17:04.917Z,29.40
2022-10-17T21:19:32.905Z,25.10
2022-10-17T21:22:00.742Z,36.47
2022-10-17T21:24:28.384Z,29.45
2022-10-17T21:26:57.141Z,24.42
2022-10-17T21:29:24.798Z,26.88
2022-10-17T21:31:52.735Z,28.02
2022-10-17T21:34:23.919Z,25.42
2022-10-17T21:36:52.267Z,27.15
2022-10-17T21:39:20.399Z,24.27
2022-10-17T21:41:47.906Z,25.45
2022-10-17T21:44:20.959Z,28.05
2022-10-17T21:46:49.191Z,25.38
2022-10-17T21:49:21.819Z,26.60
2022-10-17T21:51:49.887Z,28.95
2022-10-17T21:54:19.140Z,29.60
2022-10-17T21:56:46.829Z,26.92
2022-10-17T21:59:14.409Z,30.02
2022-10-17T22:01:44.128Z,25.80
2022-10-17T22:04:14.830Z,27.38
2022-10-17T22:06:44.277Z,28.70
2022-10-17T22:09:18.409Z,30.50
2022-10-17T22:11:48.335Z,28.15
2022-10-17T22:14:18.588Z,28.80
2022-10-17T22:16:47.349Z,29.20
2022-10-17T22:19:18.490Z,26.50
2022-10-17T22:21:46.230Z,28.17
2022-10-17T22:24:15.420Z,28.90
2022-10-17T22:26:44.519Z,24.65
2022-10-17T22:29:12.612Z,32.28
2022-10-17T22:31:40.850Z,25.15
2022-10-17T22:34:11.545Z,27.33
2022-10-17T22:36:39.092Z,25.10
2022-10-17T22:39:07.359Z,28.90
2022-10-17T22:41:34.893Z,25.80
2022-10-17T22:44:02.503Z,28.75
2022-10-17T22:46:30.046Z,28.30
2022-10-17T22:48:57.711Z,29.35
2022-10-17T22:51:26.179Z,28.38
2022-10-17T22:53:53.735Z,24.00
2022-10-17T22:56:22.859Z,25.48
2022-10-17T22:58:50.906Z,27.42
2022-10-17T23:01:21.691Z,29.00
2022-10-17T23:03:50.207Z,28.48
2022-10-17T23:06:18.349Z,29.63
2022-10-17T23:08:46.184Z,28.85
2022-10-17T23:11:14.165Z,31.23
2022-10-17T23:13:41.724Z,33.75
2022-10-17T23:16:09.691Z,27.55
2022-10-17T23:18:38.310Z,30.75
2022-10-17T23:21:06.752Z,26.95
2022-10-17T23:23:34.880Z,29.42
2022-10-17T23:26:08.097Z,27.70
2022-10-17T23:28:36.093Z,27.20
2022-10-17T23:31:16.620Z,32.90
2022-10-17T23:33:45.484Z,30.35
2022-10-17T23:36:15.110Z,27.70
2022-10-17T23:38:44.344Z,30.83
2022-10-17T23:41:12.653Z,30.92
2022-10-17T23:43:40.499Z,27.98
2022-10-17T23:46:08.740Z,31.63
2022-10-17T23:48:38.426Z,32.30
2022-10-17T23:51:07.720Z,31.13
2022-10-17T23:53:36.504Z,31.08
2022-10-17T23:56:05.115Z,37.15
2022-10-17T23:58:33.272Z,29.73
